Flight Track Log - Related Links

Times and Time Zones

All times are in EDT time to prevent confusion due to time zone crossing. See the N8119H flight status page for this flight to view local times or setup timezone preferences in your user account.

Time Position Orientation Groundspeed Altitude Reporting Facility
EDT Latitude Longitude Course Direction KTS MPH feet Rate Location/Type
Sat 08:28:07 AM 42.5833 -70.9000 90° East 70 81 700  Level KA90
Sat 08:28:43 AM 42.5833 -70.8833 90° East 86 99 1,100 688 Climbing KA90
Sat 08:29:43 AM 42.6000 -70.8500 56° Northeast 95 109 1,800 500 Climbing KA90
Sat 08:30:43 AM 42.6167 -70.8167 56° Northeast 118 136 2,100 158 Climbing KA90
Sat 08:31:37 AM 42.6333 -70.7833 56° Northeast 119 137 2,100  Level KA90
Sat 08:32:43 AM 42.6667 -70.7500 36° Northeast 117 135 2,100 150 Level KA90
Sat 08:33:37 AM 42.6833 -70.7333 36° Northeast 108 124 2,400 150 Climbing KA90
Sat 08:34:43 AM 42.7167 -70.7167 20° North 121 139 2,400 48 Level KA90
Sat 08:35:43 AM 42.7333 -70.7333 324° Northwest 101 116 2,500 100 Climbing KA90
Sat 08:36:43 AM 42.7500 -70.7667 304° West 84 97 2,600 -53 Climbing KA90
Sat 08:37:37 AM 42.7667 -70.7833 324° Northwest 83 96 2,400 -100 Descending KA90
Sat 08:38:43 AM 42.8000 -70.7833 360° North 72 83 2,400 50 Level KA90
Sat 08:39:37 AM 42.7833 -70.7667 144° Southeast 75 86 2,500  Climbing KA90
Sat 08:40:31 AM 42.7833 -70.7500 90° East 61 70 2,400  Descending KA90
Sat 08:41:31 AM 42.7667 -70.7333 144° Southeast 62 71 2,500 50 Climbing KA90
Sat 08:42:31 AM 42.7500 -70.7167 144° Southeast 59 68 2,500  Level KA90
Sat 08:43:31 AM 42.7500 -70.7000 90° East 55 63 2,500 50 Level KA90
Sat 08:44:31 AM 42.7333 -70.7167 216° Southwest 63 72 2,600 -50 Climbing KA90
Sat 08:45:31 AM 42.7167 -70.7333 216° Southwest 66 76 2,400 -50 Descending KA90
Sat 08:46:31 AM 42.7167 -70.7500 270° West 46 53 2,500  Climbing KA90
Sat 08:47:37 AM 42.7167 -70.7667 270° West 52 60 2,400 48 Descending KA90
Sat 08:48:37 AM 42.7167 -70.8000 270° West 72 83 2,600 263 Climbing KA90
Sat 08:49:31 AM 42.7000 -70.8167 216° Southwest 83 96 2,900 250 Climbing KA90
Sat 08:50:37 AM 42.7333 -70.8333 340° North 97 112 3,100 48 Climbing KA90
Sat 08:51:37 AM 42.7333 -70.8667 270° West 89 102 3,000 -50 Descending KA90
Sat 08:52:37 AM 42.7500 -70.9000 304° West 91 105 3,000  Level KA90
Sat 08:53:37 AM 42.7500 -70.9333 270° West 94 108 3,000 -50 Level KA90
Sat 08:54:37 AM 42.7667 -70.9667 304° West 98 113 2,900  Descending KA90
Sat 08:55:31 AM 42.7667 -71.0000 270° West 89 102 3,000 53 Climbing KA90
Sat 08:56:31 AM 42.7833 -71.0333 304° West 89 102 3,000  Level KA90
Sat 08:57:31 AM 42.7667 -71.0500 216° Southwest 91 105 3,000 -50 Level KA90
Sat 08:58:31 AM 42.7333 -71.0667 200° South 95 109 2,900 -200 Descending KA90
Sat 08:59:31 AM 42.7167 -71.0500 144° Southeast 97 112 2,600 -350 Descending KA90
Sat 09:00:31 AM 42.7000 -71.0333 144° Southeast 79 91 2,200 -550 Descending KA90
Sat 09:01:31 AM 42.6833 -71.0167 144° Southeast 92 106 1,500 -700 Descending KA90

Login

Don't have an account? Register now (free) for customized features, flight alerts, and more!